sensor_id;sensor_type;location;lat;lon;timestamp;pressure;altitude;pressure_sealevel;temperature;humidity
53246;BME280;39569;51.090;-1.786;2022-08-11T00:01:29;101614.59;;;18.96;57.18
53246;BME280;39569;51.090;-1.786;2022-08-11T00:03:59;101615.88;;;18.94;57.57
53246;BME280;39569;51.090;-1.786;2022-08-11T00:06:31;101619.41;;;18.88;57.37
53246;BME280;39569;51.090;-1.786;2022-08-11T00:09:00;101618.75;;;18.92;57.48
53246;BME280;39569;51.090;-1.786;2022-08-11T00:11:35;101617.97;;;18.92;57.34
53246;BME280;39569;51.090;-1.786;2022-08-11T00:14:03;101620.63;;;18.85;57.41
53246;BME280;39569;51.090;-1.786;2022-08-11T00:16:37;101622.09;;;18.81;57.21
53246;BME280;39569;51.090;-1.786;2022-08-11T00:19:06;101628.34;;;18.75;57.88
53246;BME280;39569;51.090;-1.786;2022-08-11T00:21:40;101622.94;;;18.75;58.27
53246;BME280;39569;51.090;-1.786;2022-08-11T00:24:08;101627.25;;;18.56;58.65
53246;BME280;39569;51.090;-1.786;2022-08-11T00:26:35;101629.66;;;18.38;59.60
53246;BME280;39569;51.090;-1.786;2022-08-11T00:29:07;101628.91;;;18.51;58.62
53246;BME280;39569;51.090;-1.786;2022-08-11T00:31:35;101616.63;;;18.55;58.86
53246;BME280;39569;51.090;-1.786;2022-08-11T00:34:07;101626.59;;;18.41;59.24
53246;BME280;39569;51.090;-1.786;2022-08-11T00:36:42;101624.66;;;18.35;59.24
53246;BME280;39569;51.090;-1.786;2022-08-11T00:39:10;101624.88;;;18.34;59.01
53246;BME280;39569;51.090;-1.786;2022-08-11T00:41:44;101620.47;;;18.33;59.13
53246;BME280;39569;51.090;-1.786;2022-08-11T00:44:28;101624.66;;;18.35;58.94
53246;BME280;39569;51.090;-1.786;2022-08-11T00:47:04;101619.25;;;18.35;59.02
53246;BME280;39569;51.090;-1.786;2022-08-11T00:49:44;101623.00;;;18.41;59.14
53246;BME280;39569;51.090;-1.786;2022-08-11T00:52:28;101621.53;;;18.38;59.11
53246;BME280;39569;51.090;-1.786;2022-08-11T00:55:16;101617.97;;;18.31;59.56
53246;BME280;39569;51.090;-1.786;2022-08-11T00:58:27;101612.94;;;18.15;59.90
53246;BME280;39569;51.090;-1.786;2022-08-11T01:01:08;101618.72;;;18.06;60.49
53246;BME280;39569;51.090;-1.786;2022-08-11T01:03:56;101618.94;;;18.11;60.58
53246;BME280;39569;51.090;-1.786;2022-08-11T01:06:46;101620.72;;;17.91;61.38
53246;BME280;39569;51.090;-1.786;2022-08-11T01:09:27;101618.00;;;17.84;62.00
53246;BME280;39569;51.090;-1.786;2022-08-11T01:12:27;101618.59;;;17.80;62.32
53246;BME280;39569;51.090;-1.786;2022-08-11T01:15:21;101616.22;;;18.04;61.60
53246;BME280;39569;51.090;-1.786;2022-08-11T01:21:29;101612.16;;;17.81;62.60
53246;BME280;39569;51.090;-1.786;2022-08-11T01:30:53;101604.19;;;17.66;63.26
53246;BME280;39569;51.090;-1.786;2022-08-11T01:34:01;101611.38;;;17.59;63.72
53246;BME280;39569;51.090;-1.786;2022-08-11T01:36:54;101599.72;;;17.52;63.91
53246;BME280;39569;51.090;-1.786;2022-08-11T01:39:51;101604.00;;;17.46;64.19
53246;BME280;39569;51.090;-1.786;2022-08-11T01:45:58;101598.28;;;17.56;63.98
53246;BME280;39569;51.090;-1.786;2022-08-11T01:48:36;101606.00;;;17.59;64.07
53246;BME280;39569;51.090;-1.786;2022-08-11T01:51:22;101600.88;;;17.43;64.79
53246;BME280;39569;51.090;-1.786;2022-08-11T01:54:02;101596.59;;;17.27;65.28
53246;BME280;39569;51.090;-1.786;2022-08-11T01:56:46;101600.13;;;17.28;65.77
53246;BME280;39569;51.090;-1.786;2022-08-11T01:59:17;101600.34;;;17.26;65.87
53246;BME280;39569;51.090;-1.786;2022-08-11T02:02:01;101605.75;;;17.26;65.76
53246;BME280;39569;51.090;-1.786;2022-08-11T02:04:35;101605.22;;;17.16;66.10
53246;BME280;39569;51.090;-1.786;2022-08-11T02:07:14;101597.34;;;17.15;66.35
53246;BME280;39569;51.090;-1.786;2022-08-11T02:09:59;101599.41;;;17.13;66.67
53246;BME280;39569;51.090;-1.786;2022-08-11T02:12:53;101603.97;;;17.12;66.55
53246;BME280;39569;51.090;-1.786;2022-08-11T02:15:26;101596.66;;;17.06;66.83
53246;BME280;39569;51.090;-1.786;2022-08-11T02:18:03;101608.47;;;17.05;66.91
53246;BME280;39569;51.090;-1.786;2022-08-11T02:20:35;101603.34;;;16.89;67.68
53246;BME280;39569;51.090;-1.786;2022-08-11T02:23:25;101600.78;;;16.81;67.83
53246;BME280;39569;51.090;-1.786;2022-08-11T02:26:11;101588.72;;;16.77;67.86
53246;BME280;39569;51.090;-1.786;2022-08-11T02:28:53;101583.50;;;16.76;67.81
53246;BME280;39569;51.090;-1.786;2022-08-11T02:31:30;101578.91;;;16.69;67.97
53246;BME280;39569;51.090;-1.786;2022-08-11T02:34:23;101590.13;;;16.52;68.62
53246;BME280;39569;51.090;-1.786;2022-08-11T02:37:00;101586.66;;;16.58;68.71
53246;BME280;39569;51.090;-1.786;2022-08-11T02:39:37;101588.06;;;16.54;68.72
53246;BME280;39569;51.090;-1.786;2022-08-11T02:42:22;101581.19;;;16.51;68.60
53246;BME280;39569;51.090;-1.786;2022-08-11T02:45:07;101576.19;;;16.48;68.80
53246;BME280;39569;51.090;-1.786;2022-08-11T02:47:45;101571.53;;;16.42;68.89
53246;BME280;39569;51.090;-1.786;2022-08-11T02:50:38;101577.06;;;16.34;69.44
53246;BME280;39569;51.090;-1.786;2022-08-11T02:53:11;101582.44;;;16.34;69.31
53246;BME280;39569;51.090;-1.786;2022-08-11T02:55:50;101581.84;;;16.39;69.64
53246;BME280;39569;51.090;-1.786;2022-08-11T02:58:29;101585.78;;;16.51;69.49
53246;BME280;39569;51.090;-1.786;2022-08-11T03:01:06;101578.97;;;16.55;69.57
53246;BME280;39569;51.090;-1.786;2022-08-11T03:03:46;101582.88;;;16.52;69.97
53246;BME280;39569;51.090;-1.786;2022-08-11T03:06:23;101573.56;;;16.55;70.42
53246;BME280;39569;51.090;-1.786;2022-08-11T03:08:58;101567.38;;;16.61;71.06
53246;BME280;39569;51.090;-1.786;2022-08-11T03:11:44;101573.06;;;16.66;70.75
53246;BME280;39569;51.090;-1.786;2022-08-11T03:14:41;101575.34;;;16.69;70.57
53246;BME280;39569;51.090;-1.786;2022-08-11T03:17:29;101576.06;;;16.56;71.09
53246;BME280;39569;51.090;-1.786;2022-08-11T03:20:14;101567.69;;;16.51;71.32
53246;BME280;39569;51.090;-1.786;2022-08-11T03:22:51;101568.00;;;16.42;71.99
53246;BME280;39569;51.090;-1.786;2022-08-11T03:25:26;101556.75;;;16.38;71.96
53246;BME280;39569;51.090;-1.786;2022-08-11T03:27:59;101561.44;;;16.30;72.34
53246;BME280;39569;51.090;-1.786;2022-08-11T03:30:34;101560.00;;;16.13;73.55
53246;BME280;39569;51.090;-1.786;2022-08-11T03:33:16;101560.78;;;16.07;73.36
53246;BME280;39569;51.090;-1.786;2022-08-11T03:36:11;101575.06;;;16.07;73.79
53246;BME280;39569;51.090;-1.786;2022-08-11T03:38:48;101568.31;;;15.97;73.95
53246;BME280;39569;51.090;-1.786;2022-08-11T03:41:25;101570.31;;;16.09;73.57
53246;BME280;39569;51.090;-1.786;2022-08-11T03:44:25;101567.38;;;16.04;73.99
53246;BME280;39569;51.090;-1.786;2022-08-11T03:47:10;101563.84;;;16.04;74.08
53246;BME280;39569;51.090;-1.786;2022-08-11T03:49:52;101569.16;;;15.97;74.41
53246;BME280;39569;51.090;-1.786;2022-08-11T03:52:36;101563.56;;;15.99;74.34
53246;BME280;39569;51.090;-1.786;2022-08-11T03:55:13;101555.81;;;15.74;75.08
53246;BME280;39569;51.090;-1.786;2022-08-11T03:58:20;101548.94;;;15.72;75.45
53246;BME280;39569;51.090;-1.786;2022-08-11T04:01:08;101551.75;;;15.64;75.83
53246;BME280;39569;51.090;-1.786;2022-08-11T04:04:19;101551.78;;;15.85;75.24
53246;BME280;39569;51.090;-1.786;2022-08-11T04:07:22;101551.34;;;15.82;75.51
53246;BME280;39569;51.090;-1.786;2022-08-11T04:10:22;101542.34;;;15.74;75.61
53246;BME280;39569;51.090;-1.786;2022-08-11T04:13:12;101538.72;;;15.67;76.25
53246;BME280;39569;51.090;-1.786;2022-08-11T04:18:59;101544.84;;;15.76;75.92
53246;BME280;39569;51.090;-1.786;2022-08-11T04:21:54;101548.47;;;15.54;76.86
53246;BME280;39569;51.090;-1.786;2022-08-11T04:30:57;101539.28;;;15.48;76.78
53246;BME280;39569;51.090;-1.786;2022-08-11T04:33:37;101542.00;;;15.48;76.94
53246;BME280;39569;51.090;-1.786;2022-08-11T04:36:21;101540.13;;;15.49;77.01
53246;BME280;39569;51.090;-1.786;2022-08-11T04:39:27;101539.09;;;15.50;76.96
53246;BME280;39569;51.090;-1.786;2022-08-11T04:45:55;101549.31;;;15.25;76.90
53246;BME280;39569;51.090;-1.786;2022-08-11T04:48:47;101546.03;;;15.15;76.87
53246;BME280;39569;51.090;-1.786;2022-08-11T04:52:04;101551.66;;;15.06;76.78
53246;BME280;39569;51.090;-1.786;2022-08-11T04:55:25;101537.38;;;15.05;76.40
53246;BME280;39569;51.090;-1.786;2022-08-11T04:58:18;101538.41;;;15.04;76.33
53246;BME280;39569;51.090;-1.786;2022-08-11T05:01:19;101538.50;;;15.11;75.88
53246;BME280;39569;51.090;-1.786;2022-08-11T05:08:00;101539.00;;;15.14;75.57
53246;BME280;39569;51.090;-1.786;2022-08-11T05:10:47;101549.91;;;15.13;75.73
53246;BME280;39569;51.090;-1.786;2022-08-11T05:13:26;101550.81;;;15.05;76.20
53246;BME280;39569;51.090;-1.786;2022-08-11T05:16:16;101550.66;;;15.07;75.97
53246;BME280;39569;51.090;-1.786;2022-08-11T05:19:02;101559.03;;;15.12;76.05
53246;BME280;39569;51.090;-1.786;2022-08-11T05:21:50;101562.91;;;15.24;76.19
53246;BME280;39569;51.090;-1.786;2022-08-11T05:24:41;101562.47;;;15.35;76.04
53246;BME280;39569;51.090;-1.786;2022-08-11T05:27:32;101554.44;;;15.49;75.18
53246;BME280;39569;51.090;-1.786;2022-08-11T05:30:19;101552.75;;;15.63;74.56
53246;BME280;39569;51.090;-1.786;2022-08-11T05:33:11;101565.75;;;15.59;74.65
53246;BME280;39569;51.090;-1.786;2022-08-11T05:36:02;101562.78;;;15.69;74.55
53246;BME280;39569;51.090;-1.786;2022-08-11T05:38:34;101567.97;;;15.70;74.87
53246;BME280;39569;51.090;-1.786;2022-08-11T05:41:22;101560.63;;;15.79;74.23
53246;BME280;39569;51.090;-1.786;2022-08-11T05:44:09;101562.69;;;15.77;74.13
53246;BME280;39569;51.090;-1.786;2022-08-11T05:47:00;101567.59;;;15.88;73.92
53246;BME280;39569;51.090;-1.786;2022-08-11T05:49:48;101565.72;;;15.89;74.10
53246;BME280;39569;51.090;-1.786;2022-08-11T05:52:34;101567.81;;;16.08;73.25
53246;BME280;39569;51.090;-1.786;2022-08-11T05:55:20;101566.97;;;16.07;73.76
53246;BME280;39569;51.090;-1.786;2022-08-11T05:58:06;101572.06;;;16.17;73.60
53246;BME280;39569;51.090;-1.786;2022-08-11T06:00:42;101568.28;;;16.11;73.59
53246;BME280;39569;51.090;-1.786;2022-08-11T06:03:11;101558.16;;;16.13;73.52
53246;BME280;39569;51.090;-1.786;2022-08-11T06:05:46;101566.94;;;16.22;73.37
53246;BME280;39569;51.090;-1.786;2022-08-11T06:08:13;101561.97;;;16.40;73.26
53246;BME280;39569;51.090;-1.786;2022-08-11T06:10:42;101562.50;;;16.50;72.61
53246;BME280;39569;51.090;-1.786;2022-08-11T06:13:13;101560.69;;;16.57;72.39
53246;BME280;39569;51.090;-1.786;2022-08-11T06:15:47;101563.72;;;16.68;71.86
53246;BME280;39569;51.090;-1.786;2022-08-11T06:18:15;101559.41;;;16.74;71.15
53246;BME280;39569;51.090;-1.786;2022-08-11T06:20:46;101548.34;;;16.90;70.84
53246;BME280;39569;51.090;-1.786;2022-08-11T06:23:14;101559.81;;;17.47;69.15
53246;BME280;39569;51.090;-1.786;2022-08-11T06:25:45;101553.25;;;19.80;61.16
53246;BME280;39569;51.090;-1.786;2022-08-11T06:28:14;101555.22;;;20.42;58.36
53246;BME280;39569;51.090;-1.786;2022-08-11T06:30:45;101555.13;;;21.53;55.13
53246;BME280;39569;51.090;-1.786;2022-08-11T06:33:14;101550.50;;;22.26;53.23
53246;BME280;39569;51.090;-1.786;2022-08-11T06:35:56;101548.00;;;22.55;52.36
53246;BME280;39569;51.090;-1.786;2022-08-11T06:38:37;101549.28;;;22.93;51.66
53246;BME280;39569;51.090;-1.786;2022-08-11T06:41:17;101552.34;;;22.85;51.94
53246;BME280;39569;51.090;-1.786;2022-08-11T06:46:46;101556.97;;;22.25;53.62
53246;BME280;39569;51.090;-1.786;2022-08-11T06:49:18;101555.13;;;21.35;55.95
53246;BME280;39569;51.090;-1.786;2022-08-11T06:52:05;101555.88;;;21.24;56.54
53246;BME280;39569;51.090;-1.786;2022-08-11T06:54:35;101545.34;;;20.16;60.62
53246;BME280;39569;51.090;-1.786;2022-08-11T06:57:06;101549.00;;;20.66;59.85
53246;BME280;39569;51.090;-1.786;2022-08-11T06:59:52;101543.28;;;21.05;58.81
53246;BME280;39569;51.090;-1.786;2022-08-11T07:02:44;101544.72;;;21.50;57.46
53246;BME280;39569;51.090;-1.786;2022-08-11T07:05:19;101551.06;;;21.44;56.85
53246;BME280;39569;51.090;-1.786;2022-08-11T07:11:41;101548.66;;;21.73;56.20
53246;BME280;39569;51.090;-1.786;2022-08-11T07:14:31;101553.59;;;21.82;55.75
53246;BME280;39569;51.090;-1.786;2022-08-11T07:17:15;101554.22;;;21.78;55.64
53246;BME280;39569;51.090;-1.786;2022-08-11T07:19:49;101552.06;;;22.04;55.46
53246;BME280;39569;51.090;-1.786;2022-08-11T07:22:35;101546.97;;;22.08;55.60
53246;BME280;39569;51.090;-1.786;2022-08-11T07:25:21;101541.91;;;22.41;55.30
53246;BME280;39569;51.090;-1.786;2022-08-11T07:28:13;101534.03;;;22.63;54.71
53246;BME280;39569;51.090;-1.786;2022-08-11T07:31:03;101535.16;;;22.85;53.98
53246;BME280;39569;51.090;-1.786;2022-08-11T07:33:40;101539.22;;;23.40;52.68
53246;BME280;39569;51.090;-1.786;2022-08-11T07:36:09;101544.53;;;24.38;50.37
53246;BME280;39569;51.090;-1.786;2022-08-11T07:38:40;101545.34;;;24.83;48.91
53246;BME280;39569;51.090;-1.786;2022-08-11T07:41:12;101542.81;;;25.48;47.55
53246;BME280;39569;51.090;-1.786;2022-08-11T07:43:40;101544.63;;;25.59;47.97
53246;BME280;39569;51.090;-1.786;2022-08-11T07:46:09;101546.09;;;25.66;48.48
53246;BME280;39569;51.090;-1.786;2022-08-11T07:48:55;101542.72;;;26.51;45.68
53246;BME280;39569;51.090;-1.786;2022-08-11T07:51:42;101527.59;;;27.43;43.74
53246;BME280;39569;51.090;-1.786;2022-08-11T07:54:29;101529.00;;;28.23;41.48
53246;BME280;39569;51.090;-1.786;2022-08-11T07:56:56;101525.72;;;28.26;40.88
53246;BME280;39569;51.090;-1.786;2022-08-11T07:59:25;101534.19;;;28.04;41.84
53246;BME280;39569;51.090;-1.786;2022-08-11T08:02:11;101522.78;;;28.67;40.97
53246;BME280;39569;51.090;-1.786;2022-08-11T08:04:56;101516.69;;;28.50;40.84
53246;BME280;39569;51.090;-1.786;2022-08-11T08:07:43;101521.66;;;28.68;40.20
53246;BME280;39569;51.090;-1.786;2022-08-11T08:10:28;101521.41;;;29.99;37.59
53246;BME280;39569;51.090;-1.786;2022-08-11T08:13:14;101510.31;;;31.15;36.10
53246;BME280;39569;51.090;-1.786;2022-08-11T08:15:59;101509.94;;;30.64;36.06
53246;BME280;39569;51.090;-1.786;2022-08-11T08:18:45;101522.44;;;30.52;36.77
53246;BME280;39569;51.090;-1.786;2022-08-11T08:21:12;101509.78;;;31.65;34.42
53246;BME280;39569;51.090;-1.786;2022-08-11T08:23:43;101513.13;;;30.81;35.80
53246;BME280;39569;51.090;-1.786;2022-08-11T08:26:13;101508.72;;;32.04;33.82
53246;BME280;39569;51.090;-1.786;2022-08-11T08:28:55;101511.13;;;31.44;34.11
53246;BME280;39569;51.090;-1.786;2022-08-11T08:31:42;101506.41;;;32.11;33.19
53246;BME280;39569;51.090;-1.786;2022-08-11T08:34:11;101504.84;;;31.81;33.30
53246;BME280;39569;51.090;-1.786;2022-08-11T08:36:41;101507.47;;;32.52;32.37
53246;BME280;39569;51.090;-1.786;2022-08-11T08:39:11;101504.16;;;33.01;31.03
53246;BME280;39569;51.090;-1.786;2022-08-11T08:41:39;101509.50;;;33.92;30.65
53246;BME280;39569;51.090;-1.786;2022-08-11T08:44:09;101504.34;;;32.03;32.41
53246;BME280;39569;51.090;-1.786;2022-08-11T08:46:43;101495.47;;;33.21;31.42
53246;BME280;39569;51.090;-1.786;2022-08-11T08:49:14;101501.31;;;33.87;30.75
53246;BME280;39569;51.090;-1.786;2022-08-11T08:51:43;101496.25;;;34.83;29.29
53246;BME280;39569;51.090;-1.786;2022-08-11T08:54:15;101496.59;;;34.23;29.76
53246;BME280;39569;51.090;-1.786;2022-08-11T08:56:44;101496.72;;;34.76;28.54
53246;BME280;39569;51.090;-1.786;2022-08-11T08:59:13;101495.13;;;34.04;29.34
53246;BME280;39569;51.090;-1.786;2022-08-11T09:01:45;101494.03;;;33.10;30.35
53246;BME280;39569;51.090;-1.786;2022-08-11T09:04:14;101490.53;;;34.79;28.05
53246;BME280;39569;51.090;-1.786;2022-08-11T09:06:43;101485.03;;;34.21;29.24
53246;BME280;39569;51.090;-1.786;2022-08-11T09:09:10;101482.78;;;34.45;27.74
53246;BME280;39569;51.090;-1.786;2022-08-11T09:11:39;101487.13;;;33.89;28.78
53246;BME280;39569;51.090;-1.786;2022-08-11T09:14:18;101488.72;;;34.17;28.42
53246;BME280;39569;51.090;-1.786;2022-08-11T09:16:46;101493.44;;;33.53;28.78
53246;BME280;39569;51.090;-1.786;2022-08-11T09:19:15;101487.59;;;33.68;28.82
53246;BME280;39569;51.090;-1.786;2022-08-11T09:21:46;101476.88;;;35.22;26.54
53246;BME280;39569;51.090;-1.786;2022-08-11T09:24:36;101488.16;;;33.79;27.75
53246;BME280;39569;51.090;-1.786;2022-08-11T09:27:23;101483.28;;;34.69;27.30
53246;BME280;39569;51.090;-1.786;2022-08-11T09:29:51;101477.53;;;34.66;26.91
53246;BME280;39569;51.090;-1.786;2022-08-11T09:32:18;101481.91;;;34.58;26.89
53246;BME280;39569;51.090;-1.786;2022-08-11T09:34:46;101466.44;;;34.66;27.03
53246;BME280;39569;51.090;-1.786;2022-08-11T09:37:16;101460.81;;;34.80;26.67
53246;BME280;39569;51.090;-1.786;2022-08-11T09:40:01;101461.44;;;34.77;27.88
53246;BME280;39569;51.090;-1.786;2022-08-11T09:42:49;101455.44;;;35.53;25.51
53246;BME280;39569;51.090;-1.786;2022-08-11T09:45:34;101460.44;;;36.07;23.93
53246;BME280;39569;51.090;-1.786;2022-08-11T09:48:02;101455.00;;;36.36;24.38
53246;BME280;39569;51.090;-1.786;2022-08-11T09:50:31;101464.34;;;35.89;24.01
53246;BME280;39569;51.090;-1.786;2022-08-11T09:52:59;101453.22;;;37.12;23.84
53246;BME280;39569;51.090;-1.786;2022-08-11T09:55:30;101457.41;;;35.52;24.32
53246;BME280;39569;51.090;-1.786;2022-08-11T09:57:59;101464.53;;;36.53;23.74
53246;BME280;39569;51.090;-1.786;2022-08-11T10:00:38;101467.91;;;36.75;22.98
53246;BME280;39569;51.090;-1.786;2022-08-11T10:03:07;101454.78;;;37.89;22.28
53246;BME280;39569;51.090;-1.786;2022-08-11T10:05:36;101457.97;;;37.50;22.40
53246;BME280;39569;51.090;-1.786;2022-08-11T10:08:22;101449.63;;;37.12;21.41
53246;BME280;39569;51.090;-1.786;2022-08-11T10:10:53;101452.41;;;36.48;22.53
53246;BME280;39569;51.090;-1.786;2022-08-11T10:13:26;101455.38;;;36.52;22.40
53246;BME280;39569;51.090;-1.786;2022-08-11T10:16:00;101455.84;;;35.94;23.37
53246;BME280;39569;51.090;-1.786;2022-08-11T10:18:32;101457.63;;;36.59;22.02
53246;BME280;39569;51.090;-1.786;2022-08-11T10:21:21;101453.81;;;36.80;21.06
53246;BME280;39569;51.090;-1.786;2022-08-11T10:23:51;101457.41;;;37.27;22.54
53246;BME280;39569;51.090;-1.786;2022-08-11T10:26:36;101456.88;;;38.12;21.09
53246;BME280;39569;51.090;-1.786;2022-08-11T10:29:22;101454.25;;;36.99;21.68
53246;BME280;39569;51.090;-1.786;2022-08-11T10:32:08;101452.69;;;36.90;21.62
53246;BME280;39569;51.090;-1.786;2022-08-11T10:34:54;101443.44;;;37.06;21.28
53246;BME280;39569;51.090;-1.786;2022-08-11T10:37:22;101450.03;;;36.93;22.24
53246;BME280;39569;51.090;-1.786;2022-08-11T10:39:51;101447.91;;;37.28;22.77
53246;BME280;39569;51.090;-1.786;2022-08-11T10:42:21;101446.13;;;35.66;23.38
53246;BME280;39569;51.090;-1.786;2022-08-11T10:45:08;101441.03;;;36.79;22.04
53246;BME280;39569;51.090;-1.786;2022-08-11T10:47:50;101443.63;;;37.89;20.57
53246;BME280;39569;51.090;-1.786;2022-08-11T10:50:17;101434.50;;;38.42;20.15
53246;BME280;39569;51.090;-1.786;2022-08-11T10:53:01;101428.53;;;37.90;20.69
53246;BME280;39569;51.090;-1.786;2022-08-11T10:55:47;101425.13;;;37.55;20.84
53246;BME280;39569;51.090;-1.786;2022-08-11T10:58:32;101430.88;;;36.83;21.64
53246;BME280;39569;51.090;-1.786;2022-08-11T11:01:13;101430.41;;;38.51;20.09
53246;BME280;39569;51.090;-1.786;2022-08-11T11:03:41;101426.19;;;37.13;21.74
53246;BME280;39569;51.090;-1.786;2022-08-11T11:06:15;101424.63;;;36.86;21.55
53246;BME280;39569;51.090;-1.786;2022-08-11T11:08:52;101420.31;;;35.83;21.69
53246;BME280;39569;51.090;-1.786;2022-08-11T11:11:23;101418.53;;;37.01;20.75
53246;BME280;39569;51.090;-1.786;2022-08-11T11:14:15;101416.72;;;38.25;20.98
53246;BME280;39569;51.090;-1.786;2022-08-11T11:17:08;101410.94;;;37.10;21.65
53246;BME280;39569;51.090;-1.786;2022-08-11T11:19:57;101410.56;;;37.20;20.16
53246;BME280;39569;51.090;-1.786;2022-08-11T11:22:27;101402.91;;;37.09;21.31
53246;BME280;39569;51.090;-1.786;2022-08-11T11:25:12;101404.66;;;37.72;20.60
53246;BME280;39569;51.090;-1.786;2022-08-11T11:30:35;101411.06;;;38.34;19.61
53246;BME280;39569;51.090;-1.786;2022-08-11T11:33:10;101409.25;;;38.50;19.76
53246;BME280;39569;51.090;-1.786;2022-08-11T11:35:48;101408.00;;;37.65;20.65
53246;BME280;39569;51.090;-1.786;2022-08-11T11:38:19;101402.47;;;37.86;19.65
53246;BME280;39569;51.090;-1.786;2022-08-11T11:40:46;101388.28;;;39.25;18.68
53246;BME280;39569;51.090;-1.786;2022-08-11T11:43:34;101403.25;;;38.07;20.43
53246;BME280;39569;51.090;-1.786;2022-08-11T11:46:02;101404.75;;;38.25;20.85
53246;BME280;39569;51.090;-1.786;2022-08-11T11:48:32;101401.38;;;37.49;20.38
53246;BME280;39569;51.090;-1.786;2022-08-11T11:51:00;101395.69;;;37.66;20.44
53246;BME280;39569;51.090;-1.786;2022-08-11T11:53:27;101384.44;;;38.16;19.47
53246;BME280;39569;51.090;-1.786;2022-08-11T11:55:54;101391.38;;;38.63;19.05
53246;BME280;39569;51.090;-1.786;2022-08-11T11:58:22;101392.53;;;37.97;18.88
53246;BME280;39569;51.090;-1.786;2022-08-11T12:01:06;101387.28;;;36.87;19.08
53246;BME280;39569;51.090;-1.786;2022-08-11T12:03:48;101379.13;;;37.11;19.87
53246;BME280;39569;51.090;-1.786;2022-08-11T12:06:17;101378.56;;;37.97;18.72
53246;BME280;39569;51.090;-1.786;2022-08-11T12:08:47;101373.81;;;37.77;20.74
53246;BME280;39569;51.090;-1.786;2022-08-11T12:11:15;101363.50;;;39.11;18.68
53246;BME280;39569;51.090;-1.786;2022-08-11T12:14:05;101362.28;;;37.37;19.19
53246;BME280;39569;51.090;-1.786;2022-08-11T12:16:34;101361.50;;;36.53;19.54
53246;BME280;39569;51.090;-1.786;2022-08-11T12:19:05;101368.63;;;37.17;19.32
53246;BME280;39569;51.090;-1.786;2022-08-11T12:21:35;101360.25;;;37.67;19.63
53246;BME280;39569;51.090;-1.786;2022-08-11T12:24:03;101360.53;;;37.94;18.51
53246;BME280;39569;51.090;-1.786;2022-08-11T12:26:48;101356.25;;;37.97;18.03
53246;BME280;39569;51.090;-1.786;2022-08-11T12:29:32;101354.34;;;36.89;19.30
53246;BME280;39569;51.090;-1.786;2022-08-11T12:32:00;101349.22;;;37.50;18.72
53246;BME280;39569;51.090;-1.786;2022-08-11T12:34:28;101353.28;;;37.02;18.49
53246;BME280;39569;51.090;-1.786;2022-08-11T12:36:56;101347.16;;;37.38;18.70
53246;BME280;39569;51.090;-1.786;2022-08-11T12:39:26;101346.63;;;38.51;16.95
53246;BME280;39569;51.090;-1.786;2022-08-11T12:42:09;101347.03;;;37.34;18.43
53246;BME280;39569;51.090;-1.786;2022-08-11T12:44:56;101338.69;;;37.76;18.92
53246;BME280;39569;51.090;-1.786;2022-08-11T12:47:43;101330.81;;;37.28;18.70
53246;BME280;39569;51.090;-1.786;2022-08-11T12:50:33;101333.91;;;37.97;18.15
53246;BME280;39569;51.090;-1.786;2022-08-11T12:53:21;101332.09;;;37.80;18.78
53246;BME280;39569;51.090;-1.786;2022-08-11T12:55:50;101327.31;;;37.10;18.81
53246;BME280;39569;51.090;-1.786;2022-08-11T12:58:38;101326.44;;;37.68;18.91
53246;BME280;39569;51.090;-1.786;2022-08-11T13:01:06;101315.53;;;38.28;18.35
53246;BME280;39569;51.090;-1.786;2022-08-11T13:03:51;101322.53;;;38.02;18.73
53246;BME280;39569;51.090;-1.786;2022-08-11T13:06:37;101315.84;;;37.62;18.95
53246;BME280;39569;51.090;-1.786;2022-08-11T13:09:05;101319.13;;;36.85;19.47
53246;BME280;39569;51.090;-1.786;2022-08-11T13:11:33;101302.84;;;37.45;18.42
53246;BME280;39569;51.090;-1.786;2022-08-11T13:14:17;101307.31;;;36.33;19.64
53246;BME280;39569;51.090;-1.786;2022-08-11T13:16:45;101306.59;;;36.62;20.17
53246;BME280;39569;51.090;-1.786;2022-08-11T13:19:30;101306.19;;;37.09;19.51
53246;BME280;39569;51.090;-1.786;2022-08-11T13:22:00;101298.47;;;36.86;19.10
53246;BME280;39569;51.090;-1.786;2022-08-11T13:24:30;101297.78;;;38.12;18.64
53246;BME280;39569;51.090;-1.786;2022-08-11T13:26:58;101299.09;;;37.41;18.72
53246;BME280;39569;51.090;-1.786;2022-08-11T13:29:27;101287.00;;;36.87;18.90
53246;BME280;39569;51.090;-1.786;2022-08-11T13:31:56;101298.75;;;36.93;19.67
53246;BME280;39569;51.090;-1.786;2022-08-11T13:34:25;101286.56;;;36.68;19.86
53246;BME280;39569;51.090;-1.786;2022-08-11T13:36:54;101289.59;;;35.74;19.99
53246;BME280;39569;51.090;-1.786;2022-08-11T13:39:24;101291.31;;;36.30;19.28
53246;BME280;39569;51.090;-1.786;2022-08-11T13:41:53;101283.94;;;37.30;18.29
53246;BME280;39569;51.090;-1.786;2022-08-11T13:44:21;101290.34;;;38.04;18.75
53246;BME280;39569;51.090;-1.786;2022-08-11T13:46:48;101287.44;;;36.60;19.48
53246;BME280;39569;51.090;-1.786;2022-08-11T13:49:15;101294.59;;;36.70;18.72
53246;BME280;39569;51.090;-1.786;2022-08-11T13:51:44;101282.81;;;37.22;18.34
53246;BME280;39569;51.090;-1.786;2022-08-11T13:54:15;101285.13;;;37.20;19.16
53246;BME280;39569;51.090;-1.786;2022-08-11T13:56:46;101285.53;;;36.90;19.12
53246;BME280;39569;51.090;-1.786;2022-08-11T13:59:14;101283.75;;;37.06;19.15
53246;BME280;39569;51.090;-1.786;2022-08-11T14:01:47;101278.19;;;37.06;18.43
53246;BME280;39569;51.090;-1.786;2022-08-11T14:04:19;101287.75;;;36.59;18.51
53246;BME280;39569;51.090;-1.786;2022-08-11T14:06:51;101283.84;;;36.60;18.29
53246;BME280;39569;51.090;-1.786;2022-08-11T14:09:23;101282.13;;;36.38;19.27
53246;BME280;39569;51.090;-1.786;2022-08-11T14:11:55;101274.78;;;36.71;19.25
53246;BME280;39569;51.090;-1.786;2022-08-11T14:14:58;101268.50;;;36.36;19.59
53246;BME280;39569;51.090;-1.786;2022-08-11T14:17:29;101268.38;;;36.41;19.67
53246;BME280;39569;51.090;-1.786;2022-08-11T14:19:57;101270.63;;;37.35;18.36